sensor_id;sensor_type;location;lat;lon;timestamp;pressure;altitude;pressure_sealevel;temperature;humidity
41078;BME280;26823;42.662;23.352;2023-07-30T00:01:53;94653.34;;;20.98;65.81
41078;BME280;26823;42.662;23.352;2023-07-30T00:04:19;94666.97;;;20.94;66.26
41078;BME280;26823;42.662;23.352;2023-07-30T00:06:44;94650.16;;;20.83;66.63
41078;BME280;26823;42.662;23.352;2023-07-30T00:09:09;94656.47;;;20.84;66.54
41078;BME280;26823;42.662;23.352;2023-07-30T00:11:35;94652.13;;;20.83;66.14
41078;BME280;26823;42.662;23.352;2023-07-30T00:14:00;94657.03;;;20.77;66.37
41078;BME280;26823;42.662;23.352;2023-07-30T00:16:26;94618.16;;;20.50;66.18
41078;BME280;26823;42.662;23.352;2023-07-30T00:18:52;94640.66;;;20.68;66.21
41078;BME280;26823;42.662;23.352;2023-07-30T00:21:17;94647.22;;;20.76;66.27
41078;BME280;26823;42.662;23.352;2023-07-30T00:23:42;94649.41;;;20.71;66.48
41078;BME280;26823;42.662;23.352;2023-07-30T00:26:08;94650.22;;;20.71;66.51
41078;BME280;26823;42.662;23.352;2023-07-30T00:28:33;94638.72;;;20.69;66.52
41078;BME280;26823;42.662;23.352;2023-07-30T00:30:58;94640.22;;;20.66;66.82
41078;BME280;26823;42.662;23.352;2023-07-30T00:33:24;94613.47;;;20.51;66.88
41078;BME280;26823;42.662;23.352;2023-07-30T00:35:51;94627.88;;;20.60;67.02
41078;BME280;26823;42.662;23.352;2023-07-30T00:38:17;94645.81;;;20.70;66.80
41078;BME280;26823;42.662;23.352;2023-07-30T00:40:43;94630.72;;;20.64;67.07
41078;BME280;26823;42.662;23.352;2023-07-30T00:43:09;94633.13;;;20.65;67.38
41078;BME280;26823;42.662;23.352;2023-07-30T00:45:35;94634.50;;;20.59;67.38
41078;BME280;26823;42.662;23.352;2023-07-30T00:48:00;94632.47;;;20.56;67.43
41078;BME280;26823;42.662;23.352;2023-07-30T00:50:26;94636.34;;;20.55;67.18
41078;BME280;26823;42.662;23.352;2023-07-30T00:52:52;94645.06;;;20.57;67.29
41078;BME280;26823;42.662;23.352;2023-07-30T00:55:17;94636.47;;;20.46;67.16
41078;BME280;26823;42.662;23.352;2023-07-30T00:57:43;94631.69;;;20.43;67.47
41078;BME280;26823;42.662;23.352;2023-07-30T01:00:10;94628.03;;;20.39;67.84
41078;BME280;26823;42.662;23.352;2023-07-30T01:02:36;94634.66;;;20.38;67.71
41078;BME280;26823;42.662;23.352;2023-07-30T01:05:02;94638.22;;;20.39;67.67
41078;BME280;26823;42.662;23.352;2023-07-30T01:07:31;94634.88;;;20.33;67.46
41078;BME280;26823;42.662;23.352;2023-07-30T01:09:57;94639.72;;;20.24;67.81
41078;BME280;26823;42.662;23.352;2023-07-30T01:12:23;94631.72;;;20.06;68.07
41078;BME280;26823;42.662;23.352;2023-07-30T01:14:49;94628.16;;;19.93;68.30
41078;BME280;26823;42.662;23.352;2023-07-30T01:17:16;94640.19;;;20.01;68.48
41078;BME280;26823;42.662;23.352;2023-07-30T01:19:41;94639.50;;;20.04;68.16
41078;BME280;26823;42.662;23.352;2023-07-30T01:22:07;94648.19;;;20.06;68.40
41078;BME280;26823;42.662;23.352;2023-07-30T01:24:32;94648.19;;;20.06;68.27
41078;BME280;26823;42.662;23.352;2023-07-30T01:27:05;94642.03;;;20.09;68.33
41078;BME280;26823;42.662;23.352;2023-07-30T01:32:05;94634.47;;;20.06;68.59
41078;BME280;26823;42.662;23.352;2023-07-30T01:34:34;94639.94;;;20.06;68.73
41078;BME280;26823;42.662;23.352;2023-07-30T01:37:00;94642.25;;;20.04;69.28
41078;BME280;26823;42.662;23.352;2023-07-30T01:39:27;94645.31;;;20.02;69.34
41078;BME280;26823;42.662;23.352;2023-07-30T01:41:54;94642.56;;;20.02;69.31
41078;BME280;26823;42.662;23.352;2023-07-30T01:44:19;94642.81;;;19.97;69.42
41078;BME280;26823;42.662;23.352;2023-07-30T01:46:45;94635.16;;;19.91;69.75
41078;BME280;26823;42.662;23.352;2023-07-30T01:49:10;94637.97;;;19.82;70.04
41078;BME280;26823;42.662;23.352;2023-07-30T01:51:35;94649.66;;;19.91;70.21
41078;BME280;26823;42.662;23.352;2023-07-30T01:54:01;94649.22;;;19.89;70.46
41078;BME280;26823;42.662;23.352;2023-07-30T01:56:26;94642.47;;;19.86;70.46
41078;BME280;26823;42.662;23.352;2023-07-30T01:58:51;94638.13;;;19.85;70.39
41078;BME280;26823;42.662;23.352;2023-07-30T02:01:17;94633.41;;;19.86;70.55
41078;BME280;26823;42.662;23.352;2023-07-30T02:03:42;94638.13;;;19.85;70.21
41078;BME280;26823;42.662;23.352;2023-07-30T02:06:08;94640.25;;;19.80;70.24
41078;BME280;26823;42.662;23.352;2023-07-30T02:08:33;94650.78;;;19.78;70.29
41078;BME280;26823;42.662;23.352;2023-07-30T02:10:59;94650.91;;;19.81;70.34
41078;BME280;26823;42.662;23.352;2023-07-30T02:13:25;94640.94;;;19.77;70.47
41078;BME280;26823;42.662;23.352;2023-07-30T02:15:51;94648.38;;;19.76;70.39
41078;BME280;26823;42.662;23.352;2023-07-30T02:18:16;94650.19;;;19.72;70.63
41078;BME280;26823;42.662;23.352;2023-07-30T02:20:42;94645.28;;;19.65;70.55
41078;BME280;26823;42.662;23.352;2023-07-30T02:23:07;94649.16;;;19.64;70.59
41078;BME280;26823;42.662;23.352;2023-07-30T02:25:39;94651.22;;;19.67;70.53
41078;BME280;26823;42.662;23.352;2023-07-30T02:28:04;94658.84;;;19.62;70.79
41078;BME280;26823;42.662;23.352;2023-07-30T02:30:30;94658.84;;;19.62;70.81
41078;BME280;26823;42.662;23.352;2023-07-30T02:32:55;94655.78;;;19.63;70.85
41078;BME280;26823;42.662;23.352;2023-07-30T02:35:20;94660.22;;;19.55;70.79
41078;BME280;26823;42.662;23.352;2023-07-30T02:37:46;94662.50;;;19.53;71.05
41078;BME280;26823;42.662;23.352;2023-07-30T02:40:11;94625.53;;;19.26;71.21
41078;BME280;26823;42.662;23.352;2023-07-30T02:42:37;94655.50;;;19.44;71.47
41078;BME280;26823;42.662;23.352;2023-07-30T02:45:03;94666.47;;;19.44;71.45
41078;BME280;26823;42.662;23.352;2023-07-30T02:47:28;94661.88;;;19.35;71.93
41078;BME280;26823;42.662;23.352;2023-07-30T02:49:54;94667.50;;;19.39;72.19
41078;BME280;26823;42.662;23.352;2023-07-30T02:52:19;94661.88;;;19.35;72.13
41078;BME280;26823;42.662;23.352;2023-07-30T02:54:44;94637.72;;;19.16;72.33
41078;BME280;26823;42.662;23.352;2023-07-30T02:57:10;94664.97;;;19.34;72.55
41078;BME280;26823;42.662;23.352;2023-07-30T02:59:36;94658.09;;;19.28;72.56
41078;BME280;26823;42.662;23.352;2023-07-30T03:02:02;94659.34;;;19.30;72.84
41078;BME280;26823;42.662;23.352;2023-07-30T03:04:30;94666.00;;;19.29;72.87
41078;BME280;26823;42.662;23.352;2023-07-30T03:06:55;94675.47;;;19.32;72.56
41078;BME280;26823;42.662;23.352;2023-07-30T03:09:20;94669.25;;;19.22;72.64
41078;BME280;26823;42.662;23.352;2023-07-30T03:11:46;94671.00;;;19.27;72.54
41078;BME280;26823;42.662;23.352;2023-07-30T03:14:11;94678.19;;;19.19;72.75
41078;BME280;26823;42.662;23.352;2023-07-30T03:16:36;94670.38;;;19.09;72.75
41078;BME280;26823;42.662;23.352;2023-07-30T03:19:02;94679.38;;;19.10;72.83
41078;BME280;26823;42.662;23.352;2023-07-30T03:21:27;94686.00;;;19.09;73.04
41078;BME280;26823;42.662;23.352;2023-07-30T03:23:52;94678.91;;;19.07;72.79
41078;BME280;26823;42.662;23.352;2023-07-30T03:26:18;94677.91;;;19.12;72.87
41078;BME280;26823;42.662;23.352;2023-07-30T03:28:43;94675.66;;;19.14;72.52
41078;BME280;26823;42.662;23.352;2023-07-30T03:31:08;94669.56;;;19.09;72.30
41078;BME280;26823;42.662;23.352;2023-07-30T03:33:34;94669.41;;;19.05;72.48
41078;BME280;26823;42.662;23.352;2023-07-30T03:36:12;94675.03;;;19.09;72.86
41078;BME280;26823;42.662;23.352;2023-07-30T03:38:39;94644.56;;;18.89;72.01
41078;BME280;26823;42.662;23.352;2023-07-30T03:41:05;94676.84;;;19.04;69.81
41078;BME280;26823;42.662;23.352;2023-07-30T03:43:34;94679.81;;;18.99;69.27
41078;BME280;26823;42.662;23.352;2023-07-30T03:46:00;94677.72;;;18.96;70.47
41078;BME280;26823;42.662;23.352;2023-07-30T03:48:25;94675.94;;;19.00;70.42
41078;BME280;26823;42.662;23.352;2023-07-30T03:50:52;94674.78;;;19.01;69.73
41078;BME280;26823;42.662;23.352;2023-07-30T03:53:18;94675.84;;;19.09;70.94
41078;BME280;26823;42.662;23.352;2023-07-30T03:55:43;94670.59;;;19.04;70.57
41078;BME280;26823;42.662;23.352;2023-07-30T03:58:08;94677.13;;;19.12;70.75
41078;BME280;26823;42.662;23.352;2023-07-30T04:00:34;94686.25;;;19.16;70.27
41078;BME280;26823;42.662;23.352;2023-07-30T04:02:59;94688.09;;;19.24;70.13
41078;BME280;26823;42.662;23.352;2023-07-30T04:05:24;94693.59;;;19.24;70.16
41078;BME280;26823;42.662;23.352;2023-07-30T04:07:50;94694.53;;;19.28;70.02
41078;BME280;26823;42.662;23.352;2023-07-30T04:10:15;94692.72;;;19.32;69.90
41078;BME280;26823;42.662;23.352;2023-07-30T04:12:41;94687.09;;;19.29;69.88
41078;BME280;26823;42.662;23.352;2023-07-30T04:15:06;94688.03;;;19.33;69.70
41078;BME280;26823;42.662;23.352;2023-07-30T04:17:32;94686.91;;;19.34;68.29
41078;BME280;26823;42.662;23.352;2023-07-30T04:19:57;94678.94;;;19.41;68.04
41078;BME280;26823;42.662;23.352;2023-07-30T04:22:24;94683.59;;;19.40;67.09
41078;BME280;26823;42.662;23.352;2023-07-30T04:24:50;94689.56;;;19.43;67.52
41078;BME280;26823;42.662;23.352;2023-07-30T04:27:15;94698.25;;;19.45;67.69
41078;BME280;26823;42.662;23.352;2023-07-30T04:29:40;94685.81;;;19.47;68.09
41078;BME280;26823;42.662;23.352;2023-07-30T04:32:06;94660.16;;;19.31;67.54
41078;BME280;26823;42.662;23.352;2023-07-30T04:34:32;94687.28;;;19.45;65.98
41078;BME280;26823;42.662;23.352;2023-07-30T04:36:57;94694.81;;;19.48;66.34
41078;BME280;26823;42.662;23.352;2023-07-30T04:39:22;94681.81;;;19.45;66.30
41078;BME280;26823;42.662;23.352;2023-07-30T04:41:48;94692.22;;;19.51;66.41
41078;BME280;26823;42.662;23.352;2023-07-30T04:44:14;94695.56;;;19.57;65.89
41078;BME280;26823;42.662;23.352;2023-07-30T04:46:39;94692.34;;;19.55;64.87
41078;BME280;26823;42.662;23.352;2023-07-30T04:49:04;94693.81;;;19.52;65.08
41078;BME280;26823;42.662;23.352;2023-07-30T04:51:30;94699.34;;;19.65;64.58
41078;BME280;26823;42.662;23.352;2023-07-30T04:53:55;94684.47;;;19.53;63.79
41078;BME280;26823;42.662;23.352;2023-07-30T04:56:21;94696.91;;;19.63;64.43
41078;BME280;26823;42.662;23.352;2023-07-30T04:58:53;94681.50;;;19.59;64.87
41078;BME280;26823;42.662;23.352;2023-07-30T05:01:19;94691.50;;;19.42;65.37
41078;BME280;26823;42.662;23.352;2023-07-30T05:03:44;94703.09;;;19.60;65.24
41078;BME280;26823;42.662;23.352;2023-07-30T05:06:10;94696.03;;;19.38;65.34
41078;BME280;26823;42.662;23.352;2023-07-30T05:08:35;94701.00;;;19.45;65.11
41078;BME280;26823;42.662;23.352;2023-07-30T05:11:00;94704.84;;;19.65;65.43
41078;BME280;26823;42.662;23.352;2023-07-30T05:13:25;94692.31;;;19.88;64.46
41078;BME280;26823;42.662;23.352;2023-07-30T05:15:51;94691.25;;;19.81;64.19
41078;BME280;26823;42.662;23.352;2023-07-30T05:18:16;94694.81;;;19.94;64.13
41078;BME280;26823;42.662;23.352;2023-07-30T05:20:42;94696.81;;;20.06;63.91
41078;BME280;26823;42.662;23.352;2023-07-30T05:23:07;94700.13;;;19.99;63.92
41078;BME280;26823;42.662;23.352;2023-07-30T05:25:32;94688.31;;;19.98;64.43
41078;BME280;26823;42.662;23.352;2023-07-30T05:27:58;94702.19;;;20.14;63.90
41078;BME280;26823;42.662;23.352;2023-07-30T05:30:23;94687.44;;;20.07;63.96
41078;BME280;26823;42.662;23.352;2023-07-30T05:32:49;94687.75;;;20.05;64.41
41078;BME280;26823;42.662;23.352;2023-07-30T05:35:14;94690.97;;;20.19;63.99
41078;BME280;26823;42.662;23.352;2023-07-30T05:37:40;94697.94;;;20.42;63.71
41078;BME280;26823;42.662;23.352;2023-07-30T05:40:06;94706.97;;;20.54;62.83
41078;BME280;26823;42.662;23.352;2023-07-30T05:42:32;94700.56;;;20.75;62.14
41078;BME280;26823;42.662;23.352;2023-07-30T05:44:57;94701.88;;;20.94;61.81
41078;BME280;26823;42.662;23.352;2023-07-30T05:47:22;94710.13;;;20.94;60.91
41078;BME280;26823;42.662;23.352;2023-07-30T05:49:48;94715.75;;;20.97;61.70
41078;BME280;26823;42.662;23.352;2023-07-30T05:52:13;94712.34;;;20.88;62.30
41078;BME280;26823;42.662;23.352;2023-07-30T05:54:38;94702.34;;;20.96;62.15
41078;BME280;26823;42.662;23.352;2023-07-30T05:57:04;94704.63;;;20.94;62.38
41078;BME280;26823;42.662;23.352;2023-07-30T05:59:29;94678.75;;;20.95;61.80
41078;BME280;26823;42.662;23.352;2023-07-30T06:01:56;94716.06;;;21.08;61.61
41078;BME280;26823;42.662;23.352;2023-07-30T06:04:22;94703.22;;;21.12;61.79
41078;BME280;26823;42.662;23.352;2023-07-30T06:06:47;94708.69;;;21.25;61.46
41078;BME280;26823;42.662;23.352;2023-07-30T06:09:12;94713.63;;;21.47;60.42
41078;BME280;26823;42.662;23.352;2023-07-30T06:11:38;94714.41;;;21.60;60.86
41078;BME280;26823;42.662;23.352;2023-07-30T06:14:03;94717.72;;;21.82;60.43
41078;BME280;26823;42.662;23.352;2023-07-30T06:16:29;94713.75;;;21.95;58.62
41078;BME280;26823;42.662;23.352;2023-07-30T06:18:54;94712.50;;;22.09;58.21
41078;BME280;26823;42.662;23.352;2023-07-30T06:21:20;94708.78;;;22.17;59.26
41078;BME280;26823;42.662;23.352;2023-07-30T06:23:45;94706.81;;;22.34;58.75
41078;BME280;26823;42.662;23.352;2023-07-30T06:26:10;94713.66;;;22.56;56.93
41078;BME280;26823;42.662;23.352;2023-07-30T06:28:36;94711.53;;;22.65;57.21
41078;BME280;26823;42.662;23.352;2023-07-30T06:31:02;94713.81;;;22.63;55.57
41078;BME280;26823;42.662;23.352;2023-07-30T06:33:27;94704.16;;;22.53;55.32
41078;BME280;26823;42.662;23.352;2023-07-30T06:35:53;94712.47;;;22.73;56.70
41078;BME280;26823;42.662;23.352;2023-07-30T06:38:18;94699.84;;;22.72;56.71
41078;BME280;26823;42.662;23.352;2023-07-30T06:40:43;94700.59;;;22.88;56.91
41078;BME280;26823;42.662;23.352;2023-07-30T06:43:09;94697.28;;;22.99;55.63
41078;BME280;26823;42.662;23.352;2023-07-30T06:45:34;94699.38;;;23.05;55.84
41078;BME280;26823;42.662;23.352;2023-07-30T06:47:59;94671.00;;;23.05;55.15
41078;BME280;26823;42.662;23.352;2023-07-30T06:50:25;94678.81;;;23.19;54.57
41078;BME280;26823;42.662;23.352;2023-07-30T06:52:50;94676.28;;;23.29;53.28
41078;BME280;26823;42.662;23.352;2023-07-30T06:55:15;94673.16;;;23.31;52.57
41078;BME280;26823;42.662;23.352;2023-07-30T06:57:41;94680.31;;;23.36;52.51
41078;BME280;26823;42.662;23.352;2023-07-30T07:00:07;94678.88;;;23.42;52.29
41078;BME280;26823;42.662;23.352;2023-07-30T07:02:32;94683.09;;;23.36;52.58
41078;BME280;26823;42.662;23.352;2023-07-30T07:04:58;94683.97;;;23.40;52.85
41078;BME280;26823;42.662;23.352;2023-07-30T07:07:23;94670.59;;;23.61;50.40
41078;BME280;26823;42.662;23.352;2023-07-30T07:09:48;94674.50;;;23.60;50.57
41078;BME280;26823;42.662;23.352;2023-07-30T07:12:14;94670.22;;;23.63;51.19
41078;BME280;26823;42.662;23.352;2023-07-30T07:14:39;94665.44;;;23.83;50.50
41078;BME280;26823;42.662;23.352;2023-07-30T07:17:06;94668.28;;;23.87;51.15
41078;BME280;26823;42.662;23.352;2023-07-30T07:19:31;94662.16;;;23.97;50.80
41078;BME280;26823;42.662;23.352;2023-07-30T07:22:01;94655.66;;;24.09;50.57
41078;BME280;26823;42.662;23.352;2023-07-30T07:24:27;94653.13;;;24.23;47.64
41078;BME280;26823;42.662;23.352;2023-07-30T07:26:52;94624.16;;;24.14;48.69
41078;BME280;26823;42.662;23.352;2023-07-30T07:29:17;94641.00;;;24.32;49.42
41078;BME280;26823;42.662;23.352;2023-07-30T07:31:45;94654.81;;;24.58;48.57
41078;BME280;26823;42.662;23.352;2023-07-30T07:34:10;94649.91;;;24.71;46.79
41078;BME280;26823;42.662;23.352;2023-07-30T07:36:37;94651.44;;;24.69;46.86
41078;BME280;26823;42.662;23.352;2023-07-30T07:39:03;94650.75;;;24.75;47.00
41078;BME280;26823;42.662;23.352;2023-07-30T07:41:28;94648.94;;;24.87;47.68
41078;BME280;26823;42.662;23.352;2023-07-30T07:43:54;94647.50;;;25.00;46.84
41078;BME280;26823;42.662;23.352;2023-07-30T07:46:19;94641.75;;;25.13;47.98
41078;BME280;26823;42.662;23.352;2023-07-30T07:48:45;94640.69;;;25.21;45.54
41078;BME280;26823;42.662;23.352;2023-07-30T07:51:10;94647.91;;;25.33;44.37
41078;BME280;26823;42.662;23.352;2023-07-30T07:53:36;94650.63;;;25.29;45.15
41078;BME280;26823;42.662;23.352;2023-07-30T07:56:02;94645.63;;;25.38;44.82
41078;BME280;26823;42.662;23.352;2023-07-30T07:58:27;94636.47;;;25.34;45.39
41078;BME280;26823;42.662;23.352;2023-07-30T08:00:57;94644.19;;;25.52;45.77
41078;BME280;26823;42.662;23.352;2023-07-30T08:03:22;94630.09;;;25.64;45.20
41078;BME280;26823;42.662;23.352;2023-07-30T08:05:48;94635.38;;;25.77;44.82
41078;BME280;26823;42.662;23.352;2023-07-30T08:08:14;94619.66;;;25.88;43.76
41078;BME280;26823;42.662;23.352;2023-07-30T08:10:40;94635.56;;;25.98;43.54
41078;BME280;26823;42.662;23.352;2023-07-30T08:13:09;94619.28;;;25.97;42.47
41078;BME280;26823;42.662;23.352;2023-07-30T08:15:34;94627.81;;;26.15;42.38
41078;BME280;26823;42.662;23.352;2023-07-30T08:17:59;94633.81;;;26.24;42.03
41078;BME280;26823;42.662;23.352;2023-07-30T08:20:25;94623.22;;;26.37;42.92
41078;BME280;26823;42.662;23.352;2023-07-30T08:22:50;94625.19;;;26.36;42.33
41078;BME280;26823;42.662;23.352;2023-07-30T08:25:15;94608.47;;;26.26;41.07
41078;BME280;26823;42.662;23.352;2023-07-30T08:27:41;94622.97;;;26.57;41.53
41078;BME280;26823;42.662;23.352;2023-07-30T08:30:07;94608.34;;;26.67;41.70
41078;BME280;26823;42.662;23.352;2023-07-30T08:32:33;94618.38;;;26.86;41.08
41078;BME280;26823;42.662;23.352;2023-07-30T08:34:58;94606.09;;;26.83;39.76
41078;BME280;26823;42.662;23.352;2023-07-30T08:37:24;94617.63;;;26.93;40.07
41078;BME280;26823;42.662;23.352;2023-07-30T08:39:49;94603.34;;;26.87;39.75
41078;BME280;26823;42.662;23.352;2023-07-30T08:42:15;94612.50;;;26.98;39.28
41078;BME280;26823;42.662;23.352;2023-07-30T08:44:40;94603.81;;;27.04;39.23
41078;BME280;26823;42.662;23.352;2023-07-30T08:47:06;94595.09;;;27.09;39.37
41078;BME280;26823;42.662;23.352;2023-07-30T08:49:31;94594.31;;;27.15;39.74
41078;BME280;26823;42.662;23.352;2023-07-30T08:51:58;94592.00;;;27.32;39.56
41078;BME280;26823;42.662;23.352;2023-07-30T08:54:26;94595.66;;;27.47;38.72
41078;BME280;26823;42.662;23.352;2023-07-30T08:56:54;94592.06;;;27.50;38.56
41078;BME280;26823;42.662;23.352;2023-07-30T08:59:53;94597.69;;;27.79;36.47
41078;BME280;26823;42.662;23.352;2023-07-30T09:02:48;94584.19;;;27.74;36.46
41078;BME280;26823;42.662;23.352;2023-07-30T09:05:15;94592.09;;;27.75;36.41
41078;BME280;26823;42.662;23.352;2023-07-30T09:07:40;94577.81;;;27.80;36.14
41078;BME280;26823;42.662;23.352;2023-07-30T09:10:07;94574.28;;;27.83;36.47
41078;BME280;26823;42.662;23.352;2023-07-30T09:12:33;94575.44;;;28.00;36.70
41078;BME280;26823;42.662;23.352;2023-07-30T09:14:59;94579.47;;;28.10;36.29
41078;BME280;26823;42.662;23.352;2023-07-30T09:17:25;94573.09;;;28.21;36.27
41078;BME280;26823;42.662;23.352;2023-07-30T09:19:51;94570.31;;;28.31;35.66
41078;BME280;26823;42.662;23.352;2023-07-30T09:22:33;94577.81;;;28.53;35.49
41078;BME280;26823;42.662;23.352;2023-07-30T09:25:03;94579.38;;;28.64;35.01
41078;BME280;26823;42.662;23.352;2023-07-30T09:27:28;94577.00;;;28.63;34.95
41078;BME280;26823;42.662;23.352;2023-07-30T09:29:58;94579.38;;;28.57;33.44
41078;BME280;26823;42.662;23.352;2023-07-30T09:32:28;94579.41;;;28.68;34.34
41078;BME280;26823;42.662;23.352;2023-07-30T09:34:54;94575.38;;;28.76;33.65
41078;BME280;26823;42.662;23.352;2023-07-30T09:37:20;94569.78;;;28.91;32.85
41078;BME280;26823;42.662;23.352;2023-07-30T09:39:48;94545.63;;;28.70;32.03
41078;BME280;26823;42.662;23.352;2023-07-30T09:42:13;94557.84;;;28.94;31.00
41078;BME280;26823;42.662;23.352;2023-07-30T09:44:39;94558.66;;;28.91;30.68
41078;BME280;26823;42.662;23.352;2023-07-30T09:47:08;94557.44;;;28.92;31.96
41078;BME280;26823;42.662;23.352;2023-07-30T09:49:35;94552.66;;;29.00;32.38
41078;BME280;26823;42.662;23.352;2023-07-30T09:52:02;94546.25;;;29.06;31.03
41078;BME280;26823;42.662;23.352;2023-07-30T09:54:28;94536.72;;;29.07;32.00
41078;BME280;26823;42.662;23.352;2023-07-30T09:56:54;94535.91;;;29.07;32.11
41078;BME280;26823;42.662;23.352;2023-07-30T09:59:19;94540.28;;;29.08;32.02
41078;BME280;26823;42.662;23.352;2023-07-30T10:01:49;94540.69;;;29.06;31.70
41078;BME280;26823;42.662;23.352;2023-07-30T10:04:18;94538.66;;;29.14;32.12
41078;BME280;26823;42.662;23.352;2023-07-30T10:07:06;94538.66;;;29.18;31.72
41078;BME280;26823;42.662;23.352;2023-07-30T10:09:36;94521.97;;;29.10;31.93
41078;BME280;26823;42.662;23.352;2023-07-30T10:12:09;94532.66;;;29.30;32.17
41078;BME280;26823;42.662;23.352;2023-07-30T10:14:35;94524.66;;;29.25;32.19
41078;BME280;26823;42.662;23.352;2023-07-30T10:17:01;94527.03;;;29.34;31.95
41078;BME280;26823;42.662;23.352;2023-07-30T10:19:27;94514.72;;;29.31;31.93
41078;BME280;26823;42.662;23.352;2023-07-30T10:22:20;94495.63;;;29.26;31.18
41078;BME280;26823;42.662;23.352;2023-07-30T10:25:12;94515.53;;;29.32;30.27
41078;BME280;26823;42.662;23.352;2023-07-30T10:27:41;94510.28;;;29.41;30.67
41078;BME280;26823;42.662;23.352;2023-07-30T10:30:16;94503.53;;;29.38;31.27
41078;BME280;26823;42.662;23.352;2023-07-30T10:33:04;94502.34;;;29.43;30.95
41078;BME280;26823;42.662;23.352;2023-07-30T10:35:36;94508.53;;;29.65;30.69
41078;BME280;26823;42.662;23.352;2023-07-30T10:38:33;94502.25;;;29.54;30.89
41078;BME280;26823;42.662;23.352;2023-07-30T10:41:04;94489.91;;;29.55;31.17
41078;BME280;26823;42.662;23.352;2023-07-30T10:43:41;94492.66;;;29.58;30.93
41078;BME280;26823;42.662;23.352;2023-07-30T10:46:08;94487.06;;;29.62;30.75
41078;BME280;26823;42.662;23.352;2023-07-30T10:48:36;94482.50;;;29.83;30.15
41078;BME280;26823;42.662;23.352;2023-07-30T10:51:04;94484.00;;;29.98;29.66
41078;BME280;26823;42.662;23.352;2023-07-30T10:53:30;94476.78;;;30.01;30.36
41078;BME280;26823;42.662;23.352;2023-07-30T10:55:59;94464.13;;;29.96;29.07
41078;BME280;26823;42.662;23.352;2023-07-30T10:58:30;94453.44;;;29.84;28.60
41078;BME280;26823;42.662;23.352;2023-07-30T11:00:56;94464.13;;;29.96;28.54
41078;BME280;26823;42.662;23.352;2023-07-30T11:03:25;94453.75;;;29.97;29.51
41078;BME280;26823;42.662;23.352;2023-07-30T11:05:52;94453.75;;;29.97;29.14
41078;BME280;26823;42.662;23.352;2023-07-30T11:08:17;94456.88;;;30.02;29.23
41078;BME280;26823;42.662;23.352;2023-07-30T11:10:46;94448.41;;;30.13;28.46
41078;BME280;26823;42.662;23.352;2023-07-30T11:13:17;94449.97;;;30.18;29.40
41078;BME280;26823;42.662;23.352;2023-07-30T11:15:46;94446.28;;;30.24;29.61
41078;BME280;26823;42.662;23.352;2023-07-30T11:18:12;94444.94;;;30.36;28.30
41078;BME280;26823;42.662;23.352;2023-07-30T11:20:38;94437.75;;;30.39;28.39
41078;BME280;26823;42.662;23.352;2023-07-30T11:23:23;94435.59;;;30.19;28.16
41078;BME280;26823;42.662;23.352;2023-07-30T11:25:51;94425.88;;;30.31;29.11
41078;BME280;26823;42.662;23.352;2023-07-30T11:31:02;94437.34;;;30.40;27.96
41078;BME280;26823;42.662;23.352;2023-07-30T11:33:28;94423.34;;;30.09;29.15
41078;BME280;26823;42.662;23.352;2023-07-30T11:36:00;94413.03;;;30.06;29.38
41078;BME280;26823;42.662;23.352;2023-07-30T11:38:26;94416.94;;;30.13;28.95
41078;BME280;26823;42.662;23.352;2023-07-30T11:40:53;94415.66;;;30.21;29.49
41078;BME280;26823;42.662;23.352;2023-07-30T11:43:20;94414.72;;;30.31;28.94
41078;BME280;26823;42.662;23.352;2023-07-30T11:45:46;94398.84;;;30.28;28.74
41078;BME280;26823;42.662;23.352;2023-07-30T11:48:11;94403.22;;;30.29;28.65
41078;BME280;26823;42.662;23.352;2023-07-30T11:51:03;94390.94;;;30.57;28.58
41078;BME280;26823;42.662;23.352;2023-07-30T11:54:04;94385.22;;;30.68;28.39
41078;BME280;26823;42.662;23.352;2023-07-30T11:56:34;94386.66;;;30.80;28.82
41078;BME280;26823;42.662;23.352;2023-07-30T11:59:02;94390.75;;;30.72;28.18
41078;BME280;26823;42.662;23.352;2023-07-30T12:01:30;94390.28;;;30.42;28.33
41078;BME280;26823;42.662;23.352;2023-07-30T12:03:56;94378.22;;;30.53;29.04
41078;BME280;26823;42.662;23.352;2023-07-30T12:06:22;94382.53;;;30.61;28.83
41078;BME280;26823;42.662;23.352;2023-07-30T12:08:51;94372.44;;;30.71;28.36
41078;BME280;26823;42.662;23.352;2023-07-30T12:11:19;94364.88;;;30.68;27.66
41078;BME280;26823;42.662;23.352;2023-07-30T12:13:47;94371.06;;;30.83;27.91
41078;BME280;26823;42.662;23.352;2023-07-30T12:16:15;94375.22;;;30.98;28.02
41078;BME280;26823;42.662;23.352;2023-07-30T12:18:41;94353.09;;;31.11;27.81
41078;BME280;26823;42.662;23.352;2023-07-30T12:21:06;94359.44;;;31.39;27.53
41078;BME280;26823;42.662;23.352;2023-07-30T12:23:35;94345.91;;;31.37;27.22
41078;BME280;26823;42.662;23.352;2023-07-30T12:26:06;94294.53;;;30.80;27.15
41078;BME280;26823;42.662;23.352;2023-07-30T12:28:38;94335.72;;;31.00;28.08
41078;BME280;26823;42.662;23.352;2023-07-30T12:31:03;94342.41;;;31.06;27.86
41078;BME280;26823;42.662;23.352;2023-07-30T12:33:28;94334.84;;;31.06;27.78
41078;BME280;26823;42.662;23.352;2023-07-30T12:35:54;94336.84;;;31.06;28.04
41078;BME280;26823;42.662;23.352;2023-07-30T12:38:19;94319.09;;;30.93;28.01
41078;BME280;26823;42.662;23.352;2023-07-30T12:40:45;94335.25;;;30.78;27.45
41078;BME280;26823;42.662;23.352;2023-07-30T12:43:10;94328.34;;;30.58;27.77
41078;BME280;26823;42.662;23.352;2023-07-30T12:45:35;94329.69;;;30.47;28.69
41078;BME280;26823;42.662;23.352;2023-07-30T12:48:01;94329.13;;;30.59;28.09
41078;BME280;26823;42.662;23.352;2023-07-30T12:50:26;94324.66;;;30.65;28.34
41078;BME280;26823;42.662;23.352;2023-07-30T12:52:52;94307.00;;;30.45;27.88
41078;BME280;26823;42.662;23.352;2023-07-30T12:55:18;94307.28;;;30.54;28.47